createdAt,value
2017-09-18T00:00:27.571Z,6.30
2017-09-18T00:02:54.104Z,6.30
2017-09-18T00:05:20.646Z,6.30
2017-09-18T00:07:47.890Z,6.20
2017-09-18T00:10:15.364Z,6.30
2017-09-18T00:12:41.907Z,6.20
2017-09-18T00:15:09.484Z,6.20
2017-09-18T00:17:36.011Z,6.20
2017-09-18T00:20:02.657Z,6.20
2017-09-18T00:22:29.196Z,6.20
2017-09-18T00:24:55.736Z,6.10
2017-09-18T00:27:22.892Z,6.10
2017-09-18T00:29:49.571Z,6.10
2017-09-18T00:32:16.075Z,6.20
2017-09-18T00:34:43.641Z,6.10
2017-09-18T00:37:10.179Z,6.10
2017-09-18T00:39:36.707Z,6.10
2017-09-18T00:42:05.494Z,6.10
2017-09-18T00:44:32.784Z,6.00
2017-09-18T00:47:00.236Z,6.00
2017-09-18T00:49:27.260Z,6.00
2017-09-18T00:51:53.831Z,6.00
2017-09-18T00:54:21.292Z,5.90
2017-09-18T00:56:48.750Z,5.90
2017-09-18T00:59:15.294Z,5.90
2017-09-18T01:01:41.820Z,5.90
2017-09-18T01:04:09.920Z,5.90
2017-09-18T01:06:38.091Z,5.90
2017-09-18T01:09:05.248Z,5.90
2017-09-18T01:11:33.224Z,5.90
2017-09-18T01:14:00.280Z,5.80
2017-09-18T01:16:26.816Z,5.80
2017-09-18T01:18:53.355Z,5.80
2017-09-18T01:21:19.895Z,5.80
2017-09-18T01:23:46.539Z,5.80
2017-09-18T01:26:14.715Z,5.80
2017-09-18T01:28:41.890Z,5.80
2017-09-18T01:31:08.414Z,5.80
2017-09-18T01:33:35.870Z,5.80
2017-09-18T01:36:02.416Z,5.70
2017-09-18T01:38:28.957Z,5.70
2017-09-18T01:40:55.702Z,5.70
2017-09-18T01:43:23.779Z,5.70
2017-09-18T01:45:50.934Z,5.70
2017-09-18T01:48:17.456Z,5.70
2017-09-18T01:50:44.723Z,5.70
2017-09-18T01:53:11.992Z,5.70
2017-09-18T01:55:38.540Z,5.70
2017-09-18T01:58:05.072Z,5.70
2017-09-18T02:00:31.700Z,5.80
2017-09-18T02:02:58.259Z,5.70
2017-09-18T02:05:24.900Z,5.80
2017-09-18T02:07:52.874Z,5.90
2017-09-18T02:10:20.235Z,5.90
2017-09-18T02:12:46.771Z,5.90
2017-09-18T02:15:13.315Z,5.90
2017-09-18T02:17:39.859Z,6.00
2017-09-18T02:20:07.012Z,6.00
2017-09-18T02:22:33.860Z,6.00
2017-09-18T02:25:00.500Z,6.00
2017-09-18T02:27:28.171Z,6.10
2017-09-18T02:29:54.712Z,6.10
2017-09-18T02:32:21.459Z,6.10
2017-09-18T02:34:48.000Z,6.10
2017-09-18T02:37:15.244Z,6.20
2017-09-18T02:39:41.900Z,6.20
2017-09-18T02:42:09.363Z,6.20
2017-09-18T02:44:36.824Z,6.20
2017-09-18T02:47:04.549Z,6.20
2017-09-18T02:49:32.568Z,6.20
2017-09-18T02:51:59.111Z,6.20
2017-09-18T02:54:25.753Z,6.30
2017-09-18T02:56:52.395Z,6.30
2017-09-18T02:59:19.652Z,6.30
2017-09-18T03:01:46.398Z,6.30
2017-09-18T03:11:01.648Z,6.30
2017-09-18T03:13:28.198Z,6.30
2017-09-18T03:15:55.659Z,6.40
2017-09-18T03:18:22.203Z,6.40
2017-09-18T03:20:48.845Z,6.40
2017-09-18T03:23:15.386Z,6.40
2017-09-18T03:25:42.748Z,6.40
2017-09-18T03:28:10.604Z,6.40
2017-09-18T03:30:38.077Z,6.40
2017-09-18T03:33:05.235Z,6.50
2017-09-18T03:35:31.760Z,6.50
2017-09-18T03:37:58.420Z,6.60
2017-09-18T03:40:24.960Z,6.60
2017-09-18T03:42:52.422Z,6.60
2017-09-18T03:45:20.297Z,6.60
2017-09-18T03:47:47.448Z,6.60
2017-09-18T03:50:14.854Z,6.60
2017-09-18T03:52:41.453Z,6.60
2017-09-18T03:55:08.096Z,6.60
2017-09-18T03:57:34.644Z,6.60
2017-09-18T04:00:02.101Z,6.70
2017-09-18T04:02:28.944Z,6.70
2017-09-18T04:04:56.411Z,6.60
2017-09-18T04:07:23.868Z,6.60
2017-09-18T04:09:50.379Z,6.60
2017-09-18T04:12:16.955Z,6.60
2017-09-18T04:14:43.492Z,6.60
2017-09-18T04:17:10.638Z,6.60
2017-09-18T04:19:37.394Z,6.70
2017-09-18T04:22:04.037Z,6.70
2017-09-18T04:24:30.686Z,6.70
2017-09-18T04:26:58.133Z,6.80
2017-09-18T04:29:24.686Z,6.90
2017-09-18T04:31:51.216Z,6.90
2017-09-18T04:34:17.859Z,7.10
2017-09-18T04:36:44.516Z,7.20
2017-09-18T04:39:12.360Z,7.30
2017-09-18T04:41:39.950Z,7.40
2017-09-18T04:44:08.137Z,7.40
2017-09-18T04:46:34.676Z,7.50
2017-09-18T04:49:02.028Z,7.50
2017-09-18T04:51:29.286Z,7.50
2017-09-18T04:53:56.731Z,7.50
2017-09-18T04:56:24.096Z,7.60
2017-09-18T04:58:51.468Z,7.50
2017-09-18T05:01:18.932Z,7.60
2017-09-18T05:03:45.468Z,7.70
2017-09-18T05:06:13.547Z,7.70
2017-09-18T05:08:41.420Z,7.70
2017-09-18T05:11:08.782Z,7.80
2017-09-18T05:13:36.343Z,7.70
2017-09-18T05:16:03.596Z,7.70
2017-09-18T05:18:30.755Z,7.70
2017-09-18T05:20:58.345Z,7.70
2017-09-18T05:23:26.149Z,7.70
2017-09-18T05:25:55.291Z,7.80
2017-09-18T05:28:23.267Z,7.70
2017-09-18T05:30:50.726Z,7.80
2017-09-18T05:33:17.872Z,7.80
2017-09-18T05:35:45.036Z,7.90
2017-09-18T05:38:12.711Z,7.90
2017-09-18T05:40:40.575Z,8.00
2017-09-18T05:43:08.401Z,8.10
2017-09-18T05:45:36.619Z,8.10
2017-09-18T05:48:03.152Z,8.00
2017-09-18T05:50:29.708Z,8.00
2017-09-18T05:52:56.252Z,8.10
2017-09-18T05:55:23.607Z,8.10
2017-09-18T05:57:50.249Z,8.00
2017-09-18T06:00:17.511Z,8.00
2017-09-18T06:02:44.155Z,8.00
2017-09-18T06:05:10.692Z,8.10
2017-09-18T06:07:38.361Z,8.10
2017-09-18T06:10:05.517Z,8.30
2017-09-18T06:12:32.056Z,8.30
2017-09-18T06:14:59.424Z,8.40
2017-09-18T06:17:26.057Z,8.50
2017-09-18T06:19:52.601Z,8.50
2017-09-18T06:22:19.963Z,8.50
2017-09-18T06:24:46.814Z,8.70
2017-09-18T06:27:14.270Z,8.70
2017-09-18T06:29:40.815Z,8.80
2017-09-18T06:32:07.455Z,9.00
2017-09-18T06:34:34.918Z,9.10
2017-09-18T06:37:01.979Z,9.20
2017-09-18T06:39:30.864Z,9.30
2017-09-18T06:41:58.226Z,9.40
2017-09-18T06:44:25.686Z,9.40
2017-09-18T06:46:52.228Z,9.50
2017-09-18T06:49:18.875Z,9.40
2017-09-18T06:51:46.220Z,9.50
2017-09-18T06:54:12.768Z,9.60
2017-09-18T06:56:40.640Z,9.70
2017-09-18T06:59:07.286Z,9.80
2017-09-18T07:01:33.833Z,9.90
2017-09-18T07:04:00.472Z,9.90
2017-09-18T07:06:27.000Z,10.10
2017-09-18T07:08:54.270Z,10.20
2017-09-18T07:11:20.916Z,10.20
2017-09-18T07:13:47.456Z,10.30
2017-09-18T07:16:14.094Z,10.40
2017-09-18T07:18:40.638Z,10.30
2017-09-18T07:21:07.283Z,10.30
2017-09-18T07:23:34.846Z,10.30
2017-09-18T07:26:02.100Z,10.30
2017-09-18T07:28:28.645Z,10.30
2017-09-18T07:30:56.006Z,10.20
2017-09-18T07:33:23.063Z,10.20
2017-09-18T07:35:50.830Z,10.30
2017-09-18T07:38:18.900Z,10.30
2017-09-18T07:40:45.441Z,10.40
2017-09-18T07:43:13.007Z,10.60
2017-09-18T07:45:40.363Z,10.70
2017-09-18T07:48:06.909Z,10.90
2017-09-18T07:50:33.451Z,11.20
2017-09-18T07:52:59.993Z,11.50
2017-09-18T07:55:27.253Z,11.70
2017-09-18T07:57:54.715Z,11.90
2017-09-18T08:00:21.251Z,12.20
2017-09-18T08:02:47.783Z,12.40
2017-09-18T08:05:14.333Z,12.60
2017-09-18T08:07:41.987Z,12.60
2017-09-18T08:10:08.539Z,12.70
2017-09-18T08:12:35.090Z,12.80
2017-09-18T08:15:01.728Z,13.00
2017-09-18T08:17:28.264Z,13.10
2017-09-18T08:19:54.916Z,13.00
2017-09-18T08:22:21.555Z,13.00
2017-09-18T08:24:48.915Z,13.00
2017-09-18T08:27:16.379Z,13.10
2017-09-18T08:29:43.839Z,13.10
2017-09-18T08:32:10.380Z,13.20
2017-09-18T08:34:37.539Z,13.20
2017-09-18T08:37:05.304Z,13.30
2017-09-18T08:39:32.866Z,13.30
2017-09-18T08:42:00.126Z,13.30
2017-09-18T08:44:27.490Z,13.20
2017-09-18T08:46:54.131Z,13.20
2017-09-18T08:49:20.669Z,13.30
2017-09-18T08:51:48.132Z,13.30
2017-09-18T08:54:15.595Z,13.40
2017-09-18T08:56:42.852Z,13.40
2017-09-18T08:59:09.395Z,13.40
2017-09-18T09:01:35.933Z,13.50
2017-09-18T09:04:02.476Z,13.60
2017-09-18T09:06:29.324Z,13.70
2017-09-18T09:08:56.684Z,13.80
2017-09-18T09:11:23.944Z,13.80
2017-09-18T09:13:50.586Z,13.90
2017-09-18T09:16:17.103Z,13.90
2017-09-18T09:18:43.697Z,14.00
2017-09-18T09:21:10.310Z,14.10
2017-09-18T09:23:38.475Z,14.20
2017-09-18T09:26:05.748Z,14.20
2017-09-18T09:28:34.022Z,14.20
2017-09-18T09:31:01.691Z,14.30
2017-09-18T09:33:28.336Z,14.40
2017-09-18T09:35:54.878Z,14.30
2017-09-18T09:38:22.238Z,14.50
2017-09-18T09:40:48.881Z,14.50
2017-09-18T09:43:16.140Z,14.60
2017-09-18T09:45:44.508Z,14.80
2017-09-18T09:48:11.062Z,15.00
2017-09-18T09:50:39.488Z,15.10
2017-09-18T09:53:07.011Z,15.00
2017-09-18T09:55:34.268Z,14.90
2017-09-18T09:58:01.430Z,14.70
2017-09-18T10:00:28.067Z,14.80
2017-09-18T10:02:55.221Z,14.80
2017-09-18T10:05:21.898Z,14.80
2017-09-18T10:07:49.330Z,15.00
2017-09-18T10:10:15.863Z,15.00
2017-09-18T10:12:42.512Z,14.90
2017-09-18T10:15:09.155Z,15.10
2017-09-18T10:17:36.614Z,15.00
2017-09-18T10:20:03.158Z,15.00
2017-09-18T10:22:30.416Z,15.00
2017-09-18T10:24:57.776Z,14.90
2017-09-18T10:27:25.134Z,15.00
2017-09-18T10:29:52.188Z,15.10
2017-09-18T10:32:19.548Z,15.20
2017-09-18T10:34:46.190Z,15.40
2017-09-18T10:37:13.757Z,15.50
2017-09-18T10:39:40.400Z,15.70
2017-09-18T10:42:07.656Z,15.80
2017-09-18T10:44:35.224Z,15.70
2017-09-18T10:47:02.774Z,16.00
2017-09-18T10:49:29.326Z,16.00
2017-09-18T10:51:56.686Z,15.90
2017-09-18T10:54:23.227Z,16.00
2017-09-18T10:56:49.768Z,16.00
2017-09-18T10:59:16.411Z,16.00
2017-09-18T11:01:42.947Z,15.90
2017-09-18T11:04:10.301Z,15.90
2017-09-18T11:06:37.974Z,16.00
2017-09-18T11:09:05.236Z,16.10
2017-09-18T11:11:32.493Z,16.10
2017-09-18T11:13:59.581Z,16.20
2017-09-18T11:16:26.190Z,16.20
2017-09-18T11:18:52.707Z,16.20
2017-09-18T11:21:19.379Z,16.40
2017-09-18T11:23:46.734Z,16.50
2017-09-18T11:26:14.093Z,16.50
2017-09-18T11:28:40.635Z,16.60
2017-09-18T11:31:07.893Z,16.60
2017-09-18T11:33:34.536Z,16.80
2017-09-18T11:36:01.077Z,17.00
2017-09-18T11:38:28.844Z,17.10
2017-09-18T11:40:55.390Z,17.40
2017-09-18T11:43:22.750Z,17.70
2017-09-18T11:45:50.004Z,17.60
2017-09-18T11:48:17.467Z,17.60
2017-09-18T11:50:45.413Z,17.60
2017-09-18T11:53:12.803Z,17.50
2017-09-18T11:55:40.159Z,17.70
2017-09-18T11:58:06.795Z,17.90
2017-09-18T12:00:35.347Z,17.90
2017-09-18T12:03:03.468Z,17.90
2017-09-18T12:05:31.180Z,17.90
2017-09-18T12:07:59.413Z,17.60
2017-09-18T12:10:25.940Z,17.40
2017-09-18T12:12:52.479Z,17.10
2017-09-18T12:15:19.856Z,16.80
2017-09-18T12:17:46.397Z,16.70
2017-09-18T12:20:13.553Z,16.50
2017-09-18T12:22:40.094Z,16.50
2017-09-18T12:25:06.608Z,16.50
2017-09-18T12:27:34.099Z,16.40
2017-09-18T12:30:00.638Z,16.30
2017-09-18T12:32:27.880Z,16.40
2017-09-18T12:34:55.469Z,16.60
2017-09-18T12:37:21.991Z,16.80
2017-09-18T12:39:48.532Z,16.90
2017-09-18T12:42:16.188Z,17.00
2017-09-18T12:44:43.877Z,17.20
2017-09-18T12:47:12.671Z,17.10
2017-09-18T12:49:39.312Z,17.30
2017-09-18T12:52:07.102Z,17.30
2017-09-18T12:54:34.990Z,17.30
2017-09-18T12:57:01.700Z,17.10
2017-09-18T12:59:29.472Z,17.20
2017-09-18T13:01:56.828Z,17.20
2017-09-18T13:04:24.091Z,16.90
2017-09-18T13:06:50.627Z,17.10
2017-09-18T13:09:18.910Z,16.90
2017-09-18T13:11:45.449Z,16.90
2017-09-18T13:14:12.603Z,16.90
2017-09-18T13:16:39.154Z,16.90
2017-09-18T13:19:06.613Z,16.90
2017-09-18T13:21:33.147Z,16.90
2017-09-18T13:24:00.800Z,16.90
2017-09-18T13:26:27.971Z,16.70
2017-09-18T13:28:54.590Z,16.60
2017-09-18T13:31:21.972Z,16.50
2017-09-18T13:33:49.435Z,16.30
2017-09-18T13:36:16.795Z,16.40
2017-09-18T13:38:43.335Z,16.30
2017-09-18T13:41:10.592Z,16.30
2017-09-18T13:43:37.852Z,16.30
2017-09-18T13:46:05.005Z,16.30
2017-09-18T13:48:31.536Z,16.20
2017-09-18T13:50:58.092Z,16.20
2017-09-18T13:53:24.612Z,16.10
2017-09-18T13:55:51.274Z,16.20
2017-09-18T13:58:18.935Z,16.10
2017-09-18T14:00:45.486Z,16.00
2017-09-18T14:03:12.124Z,15.90
2017-09-18T14:05:38.665Z,15.80
2017-09-18T14:08:07.364Z,15.80
2017-09-18T14:10:33.896Z,15.50
2017-09-18T14:13:00.441Z,15.60
2017-09-18T14:15:28.102Z,15.60
2017-09-18T14:17:54.641Z,15.60
2017-09-18T14:20:21.172Z,15.60
2017-09-18T14:22:47.831Z,15.50
2017-09-18T14:25:15.605Z,15.50
2017-09-18T14:27:43.366Z,15.30
2017-09-18T14:30:10.726Z,15.30
2017-09-18T14:32:37.275Z,15.10
2017-09-18T14:35:05.042Z,15.00
2017-09-18T14:37:32.500Z,15.00
2017-09-18T14:39:59.965Z,15.00
2017-09-18T14:42:27.423Z,15.00
2017-09-18T14:44:55.603Z,15.00
2017-09-18T14:47:23.171Z,15.00
2017-09-18T14:49:49.712Z,15.00
2017-09-18T14:52:16.251Z,15.00
2017-09-18T14:54:42.881Z,15.00
2017-09-18T14:57:09.844Z,14.90
2017-09-18T14:59:37.406Z,14.90
2017-09-18T15:02:05.460Z,14.80
2017-09-18T15:04:32.020Z,14.80
2017-09-18T15:06:58.566Z,14.70
2017-09-18T15:09:26.227Z,14.70
2017-09-18T15:11:54.497Z,14.70
2017-09-18T15:14:21.867Z,14.70
2017-09-18T15:16:49.276Z,14.60
2017-09-18T15:19:15.979Z,14.60
2017-09-18T15:21:43.441Z,14.60
2017-09-18T15:24:09.982Z,14.60
2017-09-18T15:26:37.444Z,14.50
2017-09-18T15:29:04.092Z,14.50
2017-09-18T15:31:30.733Z,14.50
2017-09-18T15:33:57.272Z,14.40
2017-09-18T15:36:24.939Z,14.40
2017-09-18T15:38:51.480Z,14.30
2017-09-18T15:41:19.910Z,14.30
2017-09-18T15:43:47.531Z,14.20
2017-09-18T15:46:15.403Z,14.20
2017-09-18T15:48:41.944Z,14.20
2017-09-18T15:51:08.687Z,14.20
2017-09-18T15:53:37.246Z,14.10
2017-09-18T15:56:04.427Z,14.10
2017-09-18T15:58:31.789Z,14.10
2017-09-18T16:00:58.435Z,14.10
2017-09-18T16:03:25.064Z,14.00
2017-09-18T16:05:51.655Z,13.90
2017-09-18T16:08:19.082Z,13.90
2017-09-18T16:10:46.543Z,13.90
2017-09-18T16:13:13.684Z,13.80
2017-09-18T16:15:41.368Z,13.80
2017-09-18T16:18:07.905Z,13.80
2017-09-18T16:20:35.167Z,13.70
2017-09-18T16:23:02.831Z,13.70
2017-09-18T16:25:30.292Z,13.60
2017-09-18T16:27:58.369Z,13.60
2017-09-18T16:30:24.904Z,13.70
2017-09-18T16:32:52.780Z,13.60
2017-09-18T16:35:19.934Z,13.50
2017-09-18T16:37:46.582Z,13.50
2017-09-18T16:40:13.222Z,13.50
2017-09-18T16:42:41.323Z,13.50
2017-09-18T16:45:09.741Z,13.40
2017-09-18T16:47:37.770Z,13.40
2017-09-18T16:50:04.293Z,13.30
2017-09-18T16:52:30.932Z,13.40
2017-09-18T16:54:58.715Z,13.30
2017-09-18T16:57:25.252Z,13.40
2017-09-18T16:59:51.792Z,13.40
2017-09-18T17:02:18.420Z,13.30
2017-09-18T17:04:45.080Z,13.30
2017-09-18T17:07:11.724Z,13.30
2017-09-18T17:09:39.476Z,13.20
2017-09-18T17:12:06.547Z,13.10
2017-09-18T17:14:33.700Z,13.10
2017-09-18T17:17:01.060Z,13.10
2017-09-18T17:19:27.537Z,13.10
2017-09-18T17:21:55.559Z,13.10
2017-09-18T17:24:22.320Z,13.10
2017-09-18T17:26:49.374Z,13.10
2017-09-18T17:29:17.041Z,13.00
2017-09-18T17:31:45.320Z,13.00
2017-09-18T17:34:11.864Z,12.90
2017-09-18T17:36:39.022Z,12.90
2017-09-18T17:39:05.664Z,12.90
2017-09-18T17:41:33.431Z,12.80
2017-09-18T17:43:59.973Z,12.80
2017-09-18T17:46:27.130Z,12.80
2017-09-18T17:48:53.771Z,12.80
2017-09-18T17:51:20.414Z,12.80
2017-09-18T17:53:48.062Z,12.70
2017-09-18T17:56:14.620Z,12.70
2017-09-18T17:58:42.172Z,12.70
2017-09-18T18:01:09.340Z,12.70
2017-09-18T18:03:35.984Z,12.70
2017-09-18T18:06:03.233Z,12.60
2017-09-18T18:08:30.700Z,12.60
2017-09-18T18:10:57.251Z,12.50
2017-09-18T18:13:23.892Z,12.50
2017-09-18T18:15:51.454Z,12.40
2017-09-18T18:18:18.093Z,12.30
2017-09-18T18:20:44.635Z,12.30
2017-09-18T18:23:11.281Z,12.20
2017-09-18T18:25:37.822Z,12.20
2017-09-18T18:28:05.387Z,12.20
2017-09-18T18:30:32.358Z,12.20
2017-09-18T18:32:58.879Z,12.30
2017-09-18T18:35:25.507Z,12.20
2017-09-18T18:37:52.064Z,12.20
2017-09-18T18:40:19.936Z,12.20
2017-09-18T18:42:47.600Z,12.20
2017-09-18T18:45:14.961Z,12.20
2017-09-18T18:47:41.608Z,12.20
2017-09-18T18:50:08.145Z,12.10
2017-09-18T18:52:37.859Z,12.10
2017-09-18T18:55:05.117Z,12.00
2017-09-18T18:57:32.373Z,12.00
2017-09-18T18:59:58.912Z,12.00
2017-09-18T19:02:26.679Z,12.10
2017-09-18T19:04:53.891Z,12.10
2017-09-18T19:07:22.118Z,12.00
2017-09-18T19:09:49.378Z,12.00
2017-09-18T19:12:16.635Z,12.00
2017-09-18T19:14:43.683Z,12.00
2017-09-18T19:17:11.447Z,12.00
2017-09-18T19:19:39.124Z,12.00
2017-09-18T19:22:05.652Z,11.90
2017-09-18T19:24:32.205Z,11.90
2017-09-18T19:26:59.974Z,11.90
2017-09-18T19:29:28.100Z,11.80
2017-09-18T19:31:55.512Z,11.90
2017-09-18T19:34:22.053Z,11.90
2017-09-18T19:36:48.696Z,11.90
2017-09-18T19:39:16.263Z,11.80
2017-09-18T19:41:44.747Z,11.80
2017-09-18T19:44:12.607Z,11.70
2017-09-18T19:46:40.285Z,11.80
2017-09-18T19:49:06.929Z,11.80
2017-09-18T19:51:35.004Z,11.80
2017-09-18T19:54:03.674Z,11.80
2017-09-18T19:56:30.344Z,11.80
2017-09-18T19:58:56.982Z,11.70
2017-09-18T20:01:24.550Z,11.60
2017-09-18T20:03:51.294Z,11.50
2017-09-18T20:06:17.936Z,11.50
2017-09-18T20:08:45.606Z,11.50
2017-09-18T20:11:12.350Z,11.60
2017-09-18T20:13:39.023Z,11.60
2017-09-18T20:16:06.455Z,11.60
2017-09-18T20:18:33.100Z,11.60
2017-09-18T20:21:00.056Z,11.50
2017-09-18T20:23:27.625Z,11.50
2017-09-18T20:25:54.359Z,11.50
2017-09-18T20:28:21.861Z,11.50
2017-09-18T20:30:49.387Z,11.60
2017-09-18T20:33:15.928Z,11.60
2017-09-18T20:35:42.733Z,11.50
2017-09-18T20:38:10.136Z,11.50
2017-09-18T20:40:37.699Z,11.50
2017-09-18T20:43:06.390Z,11.50
2017-09-18T20:45:34.054Z,11.50
2017-09-18T20:48:00.904Z,11.50
2017-09-18T20:50:28.366Z,11.50
2017-09-18T20:52:55.215Z,11.40
2017-09-18T20:55:21.859Z,11.40
2017-09-18T20:57:49.428Z,11.40
2017-09-18T21:00:16.066Z,11.40
2017-09-18T21:02:42.712Z,11.40
2017-09-18T21:05:09.455Z,11.50
2017-09-18T21:07:37.430Z,11.40
2017-09-18T21:10:04.182Z,11.40
2017-09-18T21:12:36.754Z,11.40
2017-09-18T21:15:03.500Z,11.30
2017-09-18T21:17:30.142Z,11.20
2017-09-18T21:19:56.890Z,11.20
2017-09-18T21:22:24.555Z,11.20
2017-09-18T21:24:51.199Z,11.20
2017-09-18T21:27:17.842Z,11.20
2017-09-18T21:29:45.918Z,11.10
2017-09-18T21:32:12.661Z,11.10
2017-09-18T21:34:39.306Z,11.10
2017-09-18T21:37:06.054Z,11.10
2017-09-18T21:39:34.216Z,11.00
2017-09-18T21:42:02.410Z,10.90
2017-09-18T21:44:29.774Z,11.00
2017-09-18T21:46:57.334Z,11.10
2017-09-18T21:49:25.199Z,11.10
2017-09-18T21:51:51.848Z,11.00
2017-09-18T21:54:19.618Z,11.00
2017-09-18T21:56:47.488Z,11.10
2017-09-18T21:59:14.134Z,11.20
2017-09-18T22:01:40.776Z,11.10
2017-09-18T22:04:07.522Z,11.10
2017-09-18T22:06:34.269Z,11.10
2017-09-18T22:09:01.525Z,11.10
2017-09-18T22:11:28.169Z,11.10
2017-09-18T22:13:55.633Z,11.10
2017-09-18T22:16:22.274Z,11.10
2017-09-18T22:18:49.941Z,11.00
2017-09-18T22:21:16.586Z,11.00
2017-09-18T22:23:43.229Z,10.90
2017-09-18T22:26:09.972Z,10.90
2017-09-18T22:28:37.437Z,10.90
2017-09-18T22:31:04.181Z,10.90
2017-09-18T22:33:30.723Z,10.90
2017-09-18T22:35:59.413Z,10.90
2017-09-18T22:38:27.080Z,11.00
2017-09-18T22:40:54.748Z,11.00
2017-09-18T22:43:22.106Z,11.10
2017-09-18T22:45:50.081Z,11.10
2017-09-18T22:48:17.645Z,11.00
2017-09-18T22:50:44.293Z,11.00
2017-09-18T22:53:12.158Z,11.00
2017-09-18T22:55:38.809Z,11.00
2017-09-18T22:58:05.550Z,11.00
2017-09-18T23:00:32.294Z,11.00
2017-09-18T23:03:00.272Z,11.00
2017-09-18T23:05:26.912Z,11.00
2017-09-18T23:07:54.374Z,11.00
2017-09-18T23:10:21.022Z,11.00
2017-09-18T23:12:47.661Z,11.00
2017-09-18T23:15:15.328Z,11.00
2017-09-18T23:17:42.790Z,11.00
2017-09-18T23:20:09.544Z,10.90
2017-09-18T23:22:36.180Z,10.90
2017-09-18T23:25:03.947Z,10.90
2017-09-18T23:27:30.600Z,10.80
2017-09-18T23:29:57.233Z,10.70
2017-09-18T23:32:23.981Z,10.70
2017-09-18T23:34:50.623Z,10.60
2017-09-18T23:37:17.265Z,10.70
2017-09-18T23:39:45.342Z,10.70
2017-09-18T23:42:13.009Z,10.70
2017-09-18T23:44:39.653Z,10.70
2017-09-18T23:47:07.218Z,10.70
2017-09-18T23:49:33.963Z,10.70
2017-09-18T23:52:00.607Z,10.70
2017-09-18T23:54:27.354Z,10.70
2017-09-18T23:56:53.997Z,10.80
2017-09-18T23:59:21.254Z,10.70
